sensor_id;sensor_type;location;lat;lon;timestamp;pressure;altitude;pressure_sealevel;temperature;humidity
47280;BME280;34064;44.942;0.008;2023-01-28T00:00:23;99597.56;;;7.18;59.68
47280;BME280;34064;44.942;0.008;2023-01-28T00:02:51;99595.78;;;7.18;59.67
47280;BME280;34064;44.942;0.008;2023-01-28T00:05:19;99597.50;;;7.20;59.51
47280;BME280;34064;44.942;0.008;2023-01-28T00:07:49;99602.00;;;7.17;59.65
47280;BME280;34064;44.942;0.008;2023-01-28T00:10:17;99602.84;;;7.18;59.40
47280;BME280;34064;44.942;0.008;2023-01-28T00:12:45;99595.78;;;7.18;59.15
47280;BME280;34064;44.942;0.008;2023-01-28T00:15:15;99590.34;;;7.22;58.97
47280;BME280;34064;44.942;0.008;2023-01-28T00:17:43;99593.94;;;7.21;58.91
47280;BME280;34064;44.942;0.008;2023-01-28T00:20:11;99587.94;;;7.17;59.12
47280;BME280;34064;44.942;0.008;2023-01-28T00:22:38;99589.72;;;7.16;59.16
47280;BME280;34064;44.942;0.008;2023-01-28T00:25:06;99596.56;;;7.21;58.76
47280;BME280;34064;44.942;0.008;2023-01-28T00:27:34;99587.84;;;7.18;58.86
47280;BME280;34064;44.942;0.008;2023-01-28T00:30:01;99589.72;;;7.16;58.90
47280;BME280;34064;44.942;0.008;2023-01-28T00:32:28;99593.13;;;7.18;58.77
47280;BME280;34064;44.942;0.008;2023-01-28T00:34:56;99598.75;;;7.12;59.06
47280;BME280;34064;44.942;0.008;2023-01-28T00:37:23;99590.81;;;7.12;58.98
47280;BME280;34064;44.942;0.008;2023-01-28T00:39:51;99590.34;;;7.22;58.57
47280;BME280;34064;44.942;0.008;2023-01-28T00:42:19;99595.78;;;7.18;58.67
47280;BME280;34064;44.942;0.008;2023-01-28T00:44:46;99592.34;;;7.16;58.61
47280;BME280;34064;44.942;0.008;2023-01-28T00:47:14;99590.63;;;7.15;58.82
47280;BME280;34064;44.942;0.008;2023-01-28T00:49:44;99586.13;;;7.17;58.62
47280;BME280;34064;44.942;0.008;2023-01-28T00:52:12;99580.72;;;7.21;58.44
47280;BME280;34064;44.942;0.008;2023-01-28T00:54:39;99589.56;;;7.20;58.00
47280;BME280;34064;44.942;0.008;2023-01-28T00:57:07;99588.78;;;7.17;58.17
47280;BME280;34064;44.942;0.008;2023-01-28T00:59:34;99589.63;;;7.18;58.25
47280;BME280;34064;44.942;0.008;2023-01-28T01:02:02;99591.44;;;7.17;58.31
47280;BME280;34064;44.942;0.008;2023-01-28T01:04:37;99594.16;;;7.16;58.31
47280;BME280;34064;44.942;0.008;2023-01-28T01:07:04;99591.34;;;7.19;58.26
47280;BME280;34064;44.942;0.008;2023-01-28T01:09:30;99586.13;;;7.17;58.34
47280;BME280;34064;44.942;0.008;2023-01-28T01:11:57;99578.06;;;7.21;58.11
47280;BME280;34064;44.942;0.008;2023-01-28T01:14:23;99578.31;;;7.16;58.36
47280;BME280;34064;44.942;0.008;2023-01-28T01:16:49;99579.78;;;7.22;58.04
47280;BME280;34064;44.942;0.008;2023-01-28T01:19:16;99588.00;;;7.15;58.38
47280;BME280;34064;44.942;0.008;2023-01-28T01:21:43;99583.59;;;7.16;58.15
47280;BME280;34064;44.942;0.008;2023-01-28T01:24:15;99582.66;;;7.17;58.23
47280;BME280;34064;44.942;0.008;2023-01-28T01:26:42;99582.81;;;7.14;58.26
47280;BME280;34064;44.942;0.008;2023-01-28T01:29:09;99582.81;;;7.14;58.64
47280;BME280;34064;44.942;0.008;2023-01-28T01:31:37;99585.34;;;7.15;58.44
47280;BME280;34064;44.942;0.008;2023-01-28T01:34:04;99577.44;;;7.15;58.54
47280;BME280;34064;44.942;0.008;2023-01-28T01:36:32;99581.00;;;7.14;58.61
47280;BME280;34064;44.942;0.008;2023-01-28T01:38:59;99581.88;;;7.15;58.67
47280;BME280;34064;44.942;0.008;2023-01-28T01:41:29;99586.13;;;7.17;58.39
47280;BME280;34064;44.942;0.008;2023-01-28T01:44:01;99577.44;;;7.15;58.31
47280;BME280;34064;44.942;0.008;2023-01-28T01:46:32;99578.34;;;7.14;58.36
47280;BME280;34064;44.942;0.008;2023-01-28T01:49:07;99573.00;;;7.16;58.63
47280;BME280;34064;44.942;0.008;2023-01-28T01:51:39;99576.50;;;7.16;58.29
47280;BME280;34064;44.942;0.008;2023-01-28T01:54:06;99573.84;;;7.16;58.64
47280;BME280;34064;44.942;0.008;2023-01-28T01:56:37;99572.16;;;7.15;58.38
47280;BME280;34064;44.942;0.008;2023-01-28T01:59:07;99570.28;;;7.17;58.46
47280;BME280;34064;44.942;0.008;2023-01-28T02:01:36;99576.50;;;7.16;58.37
47280;BME280;34064;44.942;0.008;2023-01-28T02:04:09;99583.50;;;7.17;58.46
47280;BME280;34064;44.942;0.008;2023-01-28T02:06:38;99579.00;;;7.20;58.39
47280;BME280;34064;44.942;0.008;2023-01-28T02:09:23;99580.84;;;7.17;58.46
47280;BME280;34064;44.942;0.008;2023-01-28T02:11:51;99577.28;;;7.18;58.21
47280;BME280;34064;44.942;0.008;2023-01-28T02:14:19;99570.28;;;7.17;58.25
47280;BME280;34064;44.942;0.008;2023-01-28T02:16:46;99575.56;;;7.17;58.14
47280;BME280;34064;44.942;0.008;2023-01-28T02:19:13;99572.94;;;7.17;57.98
47280;BME280;34064;44.942;0.008;2023-01-28T02:30:06;99573.16;;;7.13;58.04
47280;BME280;34064;44.942;0.008;2023-01-28T02:32:56;99577.59;;;7.12;57.92
47280;BME280;34064;44.942;0.008;2023-01-28T02:35:36;99575.88;;;7.11;57.91
47280;BME280;34064;44.942;0.008;2023-01-28T02:38:14;99578.59;;;7.10;57.75
47280;BME280;34064;44.942;0.008;2023-01-28T02:40:45;99574.09;;;7.12;57.77
47280;BME280;34064;44.942;0.008;2023-01-28T02:43:44;99580.25;;;7.12;58.16
47280;BME280;34064;44.942;0.008;2023-01-28T02:46:20;99572.31;;;7.12;58.14
47280;BME280;34064;44.942;0.008;2023-01-28T02:49:09;99571.31;;;7.15;57.77
47280;BME280;34064;44.942;0.008;2023-01-28T02:54:58;99573.94;;;7.15;57.68
47280;BME280;34064;44.942;0.008;2023-01-28T02:58:00;99584.56;;;7.13;58.20
47280;BME280;34064;44.942;0.008;2023-01-28T03:00:45;99576.88;;;7.09;58.03
47280;BME280;34064;44.942;0.008;2023-01-28T03:03:27;99580.38;;;7.09;57.87
47280;BME280;34064;44.942;0.008;2023-01-28T03:06:02;99582.88;;;7.12;57.80
47280;BME280;34064;44.942;0.008;2023-01-28T03:08:41;99583.59;;;7.16;57.70
47280;BME280;34064;44.942;0.008;2023-01-28T03:11:30;99580.16;;;7.14;57.62
47280;BME280;34064;44.942;0.008;2023-01-28T03:14:17;99581.63;;;7.20;57.33
47280;BME280;34064;44.942;0.008;2023-01-28T03:17:04;99587.31;;;7.12;57.30
47280;BME280;34064;44.942;0.008;2023-01-28T03:19:53;99584.88;;;7.07;57.83
47280;BME280;34064;44.942;0.008;2023-01-28T03:22:39;99586.59;;;7.08;58.10
47280;BME280;34064;44.942;0.008;2023-01-28T03:25:27;99592.59;;;7.12;57.80
47280;BME280;34064;44.942;0.008;2023-01-28T03:28:16;99587.31;;;7.12;57.71
47280;BME280;34064;44.942;0.008;2023-01-28T03:31:09;99586.47;;;7.11;57.60
47280;BME280;34064;44.942;0.008;2023-01-28T03:33:56;99593.47;;;7.12;57.52
47280;BME280;34064;44.942;0.008;2023-01-28T03:36:43;99588.31;;;7.09;57.41
47280;BME280;34064;44.942;0.008;2023-01-28T03:39:15;99592.72;;;7.09;57.38
47280;BME280;34064;44.942;0.008;2023-01-28T03:41:42;99588.47;;;7.06;57.69
47280;BME280;34064;44.942;0.008;2023-01-28T03:44:08;99590.16;;;7.07;57.37
47280;BME280;34064;44.942;0.008;2023-01-28T03:46:53;99602.38;;;7.10;57.60
47280;BME280;34064;44.942;0.008;2023-01-28T03:49:19;99590.97;;;7.09;57.23
47280;BME280;34064;44.942;0.008;2023-01-28T03:51:45;99586.59;;;7.08;57.29
47280;BME280;34064;44.942;0.008;2023-01-28T03:54:12;99593.28;;;7.15;57.10
47280;BME280;34064;44.942;0.008;2023-01-28T03:56:39;99596.84;;;7.14;56.92
47280;BME280;34064;44.942;0.008;2023-01-28T03:59:06;99595.31;;;7.10;57.21
47280;BME280;34064;44.942;0.008;2023-01-28T04:01:33;99597.97;;;7.10;57.25
47280;BME280;34064;44.942;0.008;2023-01-28T04:04:02;99591.66;;;7.13;57.35
47280;BME280;34064;44.942;0.008;2023-01-28T04:06:29;99593.47;;;7.12;57.16
47280;BME280;34064;44.942;0.008;2023-01-28T04:08:56;99593.59;;;7.09;57.49
47280;BME280;34064;44.942;0.008;2023-01-28T04:11:25;99600.59;;;7.10;57.32
47280;BME280;34064;44.942;0.008;2023-01-28T04:13:52;99602.38;;;7.10;57.46
47280;BME280;34064;44.942;0.008;2023-01-28T04:16:18;99595.31;;;7.10;57.11
47280;BME280;34064;44.942;0.008;2023-01-28T04:18:45;99605.00;;;7.10;56.98
47280;BME280;34064;44.942;0.008;2023-01-28T04:21:12;99597.88;;;7.12;56.62
47280;BME280;34064;44.942;0.008;2023-01-28T04:23:38;99595.47;;;7.07;56.96
47280;BME280;34064;44.942;0.008;2023-01-28T04:26:05;99608.75;;;7.06;56.97
47280;BME280;34064;44.942;0.008;2023-01-28T04:28:31;99605.00;;;7.10;57.04
47280;BME280;34064;44.942;0.008;2023-01-28T04:30:58;99611.31;;;7.07;56.78
47280;BME280;34064;44.942;0.008;2023-01-28T04:33:25;99612.41;;;7.03;57.04
47280;BME280;34064;44.942;0.008;2023-01-28T04:35:51;99609.75;;;7.03;57.10
47280;BME280;34064;44.942;0.008;2023-01-28T04:38:19;99612.31;;;7.05;57.34
47280;BME280;34064;44.942;0.008;2023-01-28T04:40:52;99611.31;;;7.07;57.33
47280;BME280;34064;44.942;0.008;2023-01-28T04:43:20;99604.16;;;7.09;56.72
47280;BME280;34064;44.942;0.008;2023-01-28T04:45:48;99605.25;;;7.05;56.95
47280;BME280;34064;44.942;0.008;2023-01-28T04:48:16;99606.16;;;7.04;57.04
47280;BME280;34064;44.942;0.008;2023-01-28T04:50:43;99606.16;;;7.04;56.96
47280;BME280;34064;44.942;0.008;2023-01-28T04:53:11;99608.06;;;7.02;57.10
47280;BME280;34064;44.942;0.008;2023-01-28T04:55:37;99604.31;;;7.06;56.94
47280;BME280;34064;44.942;0.008;2023-01-28T04:58:03;99618.44;;;7.05;56.94
47280;BME280;34064;44.942;0.008;2023-01-28T05:00:30;99616.59;;;7.07;56.62
47280;BME280;34064;44.942;0.008;2023-01-28T05:03:00;99609.59;;;7.06;57.07
47280;BME280;34064;44.942;0.008;2023-01-28T05:05:27;99623.72;;;7.05;57.08
47280;BME280;34064;44.942;0.008;2023-01-28T05:07:55;99628.88;;;7.08;56.33
47280;BME280;34064;44.942;0.008;2023-01-28T05:10:23;99631.03;;;7.00;56.92
47280;BME280;34064;44.942;0.008;2023-01-28T05:12:50;99635.41;;;7.01;57.07
47280;BME280;34064;44.942;0.008;2023-01-28T05:15:17;99632.59;;;7.04;56.90
47280;BME280;34064;44.942;0.008;2023-01-28T05:17:44;99634.59;;;6.99;56.93
47280;BME280;34064;44.942;0.008;2023-01-28T05:20:12;99638.03;;;7.01;56.88
47280;BME280;34064;44.942;0.008;2023-01-28T05:22:39;99629.94;;;7.04;56.77
47280;BME280;34064;44.942;0.008;2023-01-28T05:25:07;99633.53;;;7.03;56.68
47280;BME280;34064;44.942;0.008;2023-01-28T05:27:33;99633.59;;;7.01;56.66
47280;BME280;34064;44.942;0.008;2023-01-28T05:30:00;99632.66;;;7.02;56.61
47280;BME280;34064;44.942;0.008;2023-01-28T05:32:26;99637.13;;;7.02;56.92
47280;BME280;34064;44.942;0.008;2023-01-28T05:34:52;99638.59;;;7.08;56.21
47280;BME280;34064;44.942;0.008;2023-01-28T05:37:19;99644.88;;;7.05;56.32
47280;BME280;34064;44.942;0.008;2023-01-28T05:39:45;99637.03;;;7.03;56.43
47280;BME280;34064;44.942;0.008;2023-01-28T05:42:11;99644.03;;;7.05;55.89
47280;BME280;34064;44.942;0.008;2023-01-28T05:44:42;99645.75;;;7.06;56.08
47280;BME280;34064;44.942;0.008;2023-01-28T05:47:09;99645.03;;;7.02;56.12
47280;BME280;34064;44.942;0.008;2023-01-28T05:49:37;99648.59;;;7.01;56.61
47280;BME280;34064;44.942;0.008;2023-01-28T05:52:04;99650.31;;;7.02;56.48
47280;BME280;34064;44.942;0.008;2023-01-28T05:54:32;99653.72;;;7.04;56.50
47280;BME280;34064;44.942;0.008;2023-01-28T05:56:59;99648.28;;;7.07;56.37
47280;BME280;34064;44.942;0.008;2023-01-28T05:59:27;99656.38;;;7.04;56.45
47280;BME280;34064;44.942;0.008;2023-01-28T06:01:54;99660.72;;;7.05;56.67
47280;BME280;34064;44.942;0.008;2023-01-28T06:04:21;99652.03;;;7.03;56.50
47280;BME280;34064;44.942;0.008;2023-01-28T06:06:51;99655.44;;;7.05;56.61
47280;BME280;34064;44.942;0.008;2023-01-28T06:09:19;99657.09;;;7.08;56.46
47280;BME280;34064;44.942;0.008;2023-01-28T06:11:46;99659.88;;;7.05;56.58
47280;BME280;34064;44.942;0.008;2023-01-28T06:14:16;99663.13;;;7.10;56.37
47280;BME280;34064;44.942;0.008;2023-01-28T06:16:47;99661.50;;;7.07;56.18
47280;BME280;34064;44.942;0.008;2023-01-28T06:19:14;99667.72;;;7.06;56.34
47280;BME280;34064;44.942;0.008;2023-01-28T06:21:42;99673.00;;;7.06;56.42
47280;BME280;34064;44.942;0.008;2023-01-28T06:24:09;99673.09;;;7.05;56.34
47280;BME280;34064;44.942;0.008;2023-01-28T06:26:37;99667.72;;;7.06;56.33
47280;BME280;34064;44.942;0.008;2023-01-28T06:29:04;99671.28;;;7.05;56.19
47280;BME280;34064;44.942;0.008;2023-01-28T06:31:31;99674.72;;;7.07;56.19
47280;BME280;34064;44.942;0.008;2023-01-28T06:33:59;99675.72;;;7.05;56.22
47280;BME280;34064;44.942;0.008;2023-01-28T06:36:26;99677.44;;;7.06;56.30
47280;BME280;34064;44.942;0.008;2023-01-28T06:38:54;99676.56;;;7.05;56.48
47280;BME280;34064;44.942;0.008;2023-01-28T06:41:21;99687.22;;;7.03;56.34
47280;BME280;34064;44.942;0.008;2023-01-28T06:43:49;99676.28;;;7.11;56.12
47280;BME280;34064;44.942;0.008;2023-01-28T06:46:16;99693.28;;;7.06;56.35
47280;BME280;34064;44.942;0.008;2023-01-28T06:48:44;99690.56;;;7.07;56.12
47280;BME280;34064;44.942;0.008;2023-01-28T06:51:11;99696.00;;;7.04;56.47
47280;BME280;34064;44.942;0.008;2023-01-28T06:53:38;99696.00;;;7.04;56.29
47280;BME280;34064;44.942;0.008;2023-01-28T06:56:05;99701.22;;;7.06;56.56
47280;BME280;34064;44.942;0.008;2023-01-28T06:58:31;99705.59;;;7.07;56.48
47280;BME280;34064;44.942;0.008;2023-01-28T07:00:58;99702.06;;;7.06;56.78
47280;BME280;34064;44.942;0.008;2023-01-28T07:03:24;99701.84;;;7.11;56.42
47280;BME280;34064;44.942;0.008;2023-01-28T07:05:51;99706.22;;;7.12;56.29
47280;BME280;34064;44.942;0.008;2023-01-28T07:08:17;99706.28;;;7.10;56.42
47280;BME280;34064;44.942;0.008;2023-01-28T07:10:44;99709.84;;;7.09;56.42
47280;BME280;34064;44.942;0.008;2023-01-28T07:13:10;99723.88;;;7.11;56.39
47280;BME280;34064;44.942;0.008;2023-01-28T07:15:37;99718.56;;;7.11;56.43
47280;BME280;34064;44.942;0.008;2023-01-28T07:18:04;99716.84;;;7.10;56.44
47280;BME280;34064;44.942;0.008;2023-01-28T07:20:31;99724.78;;;7.10;56.36
47280;BME280;34064;44.942;0.008;2023-01-28T07:22:58;99725.50;;;7.14;56.24
47280;BME280;34064;44.942;0.008;2023-01-28T07:25:28;99722.75;;;7.15;56.32
47280;BME280;34064;44.942;0.008;2023-01-28T07:27:56;99729.16;;;7.11;56.34
47280;BME280;34064;44.942;0.008;2023-01-28T07:30:22;99724.69;;;7.12;56.48
47280;BME280;34064;44.942;0.008;2023-01-28T07:32:56;99723.00;;;7.11;56.39
47280;BME280;34064;44.942;0.008;2023-01-28T07:35:24;99720.28;;;7.12;56.47
47280;BME280;34064;44.942;0.008;2023-01-28T07:37:56;99727.44;;;7.10;56.50
47280;BME280;34064;44.942;0.008;2023-01-28T07:40:23;99729.16;;;7.11;56.60
47280;BME280;34064;44.942;0.008;2023-01-28T07:42:50;99731.84;;;7.10;56.69
47280;BME280;34064;44.942;0.008;2023-01-28T07:45:18;99732.72;;;7.10;56.76
47280;BME280;34064;44.942;0.008;2023-01-28T07:47:51;99739.72;;;7.11;56.63
47280;BME280;34064;44.942;0.008;2023-01-28T07:50:18;99738.00;;;7.10;56.84
47280;BME280;34064;44.942;0.008;2023-01-28T07:52:44;99739.53;;;7.14;56.83
47280;BME280;34064;44.942;0.008;2023-01-28T07:55:11;99745.63;;;7.16;56.54
47280;BME280;34064;44.942;0.008;2023-01-28T07:58:09;99742.13;;;7.16;56.58
47280;BME280;34064;44.942;0.008;2023-01-28T08:00:36;99739.53;;;7.14;56.48
47280;BME280;34064;44.942;0.008;2023-01-28T08:03:11;99749.19;;;7.15;56.38
47280;BME280;34064;44.942;0.008;2023-01-28T08:05:44;99753.69;;;7.13;56.29
47280;BME280;34064;44.942;0.008;2023-01-28T08:08:11;99756.28;;;7.15;56.16
47280;BME280;34064;44.942;0.008;2023-01-28T08:10:39;99762.41;;;7.15;56.22
47280;BME280;34064;44.942;0.008;2023-01-28T08:13:06;99760.56;;;7.17;56.03
47280;BME280;34064;44.942;0.008;2023-01-28T08:15:33;99753.41;;;7.20;55.43
47280;BME280;34064;44.942;0.008;2023-01-28T08:18:01;99764.84;;;7.20;55.20
47280;BME280;34064;44.942;0.008;2023-01-28T08:20:30;99761.47;;;7.16;55.11
47280;BME280;34064;44.942;0.008;2023-01-28T08:23:08;99768.34;;;7.21;54.96
47280;BME280;34064;44.942;0.008;2023-01-28T08:25:37;99765.72;;;7.21;54.57
47280;BME280;34064;44.942;0.008;2023-01-28T08:28:05;99781.63;;;7.19;54.64
47280;BME280;34064;44.942;0.008;2023-01-28T08:30:33;99783.41;;;7.18;54.75
47280;BME280;34064;44.942;0.008;2023-01-28T08:33:01;99782.53;;;7.18;55.14
47280;BME280;34064;44.942;0.008;2023-01-28T08:35:28;99776.28;;;7.21;55.02
47280;BME280;34064;44.942;0.008;2023-01-28T08:37:57;99784.00;;;7.25;54.49
47280;BME280;34064;44.942;0.008;2023-01-28T08:40:24;99785.03;;;7.21;54.77
47280;BME280;34064;44.942;0.008;2023-01-28T08:42:55;99794.69;;;7.22;54.86
47280;BME280;34064;44.942;0.008;2023-01-28T08:45:23;99800.56;;;7.29;54.45
47280;BME280;34064;44.942;0.008;2023-01-28T08:47:52;99791.84;;;7.27;54.19
47280;BME280;34064;44.942;0.008;2023-01-28T08:50:19;99800.81;;;7.23;54.59
47280;BME280;34064;44.942;0.008;2023-01-28T08:52:47;99803.41;;;7.24;54.36
47280;BME280;34064;44.942;0.008;2023-01-28T08:55:15;99805.19;;;7.24;54.39
47280;BME280;34064;44.942;0.008;2023-01-28T08:57:43;99816.69;;;7.23;54.65
47280;BME280;34064;44.942;0.008;2023-01-28T09:00:11;99820.13;;;7.25;54.65
47280;BME280;34064;44.942;0.008;2023-01-28T09:02:37;99819.06;;;7.29;54.58
47280;BME280;34064;44.942;0.008;2023-01-28T09:05:05;99833.28;;;7.26;54.52
47280;BME280;34064;44.942;0.008;2023-01-28T09:07:33;99829.53;;;7.30;54.48
47280;BME280;34064;44.942;0.008;2023-01-28T09:09:59;99835.72;;;7.31;54.37
47280;BME280;34064;44.942;0.008;2023-01-28T09:12:25;99835.53;;;7.34;54.06
47280;BME280;34064;44.942;0.008;2023-01-28T09:14:52;99839.69;;;7.40;53.77
47280;BME280;34064;44.942;0.008;2023-01-28T09:17:20;99843.25;;;7.39;53.47
47280;BME280;34064;44.942;0.008;2023-01-28T09:19:46;99848.53;;;7.39;53.46
47280;BME280;34064;44.942;0.008;2023-01-28T09:22:12;99838.69;;;7.42;53.47
47280;BME280;34064;44.942;0.008;2023-01-28T09:24:39;99832.13;;;7.51;52.41
47280;BME280;34064;44.942;0.008;2023-01-28T09:27:05;99840.13;;;7.49;52.21
47280;BME280;34064;44.942;0.008;2023-01-28T09:29:33;99854.28;;;7.48;52.40
47280;BME280;34064;44.942;0.008;2023-01-28T09:32:00;99850.72;;;7.49;52.03
47280;BME280;34064;44.942;0.008;2023-01-28T09:34:26;99842.59;;;7.53;51.59
47280;BME280;34064;44.942;0.008;2023-01-28T09:36:53;99851.41;;;7.53;51.68
47280;BME280;34064;44.942;0.008;2023-01-28T09:39:19;99848.69;;;7.55;51.25
47280;BME280;34064;44.942;0.008;2023-01-28T09:41:53;99849.13;;;7.64;50.50
47280;BME280;34064;44.942;0.008;2023-01-28T09:48:11;99842.97;;;7.64;50.77
47280;BME280;34064;44.942;0.008;2023-01-28T09:50:29;99838.16;;;7.72;50.60
47280;BME280;34064;44.942;0.008;2023-01-28T09:53:02;99836.22;;;7.76;50.68
47280;BME280;34064;44.942;0.008;2023-01-28T09:55:34;99832.50;;;7.80;50.32
47280;BME280;34064;44.942;0.008;2023-01-28T09:58:03;99841.13;;;7.84;50.48
47280;BME280;34064;44.942;0.008;2023-01-28T10:05:55;99816.28;;;8.05;49.83
47280;BME280;34064;44.942;0.008;2023-01-28T10:14:03;99821.72;;;8.20;49.28
47280;BME280;34064;44.942;0.008;2023-01-28T10:16:43;99803.59;;;8.30;48.83
47280;BME280;34064;44.942;0.008;2023-01-28T10:19:19;99809.41;;;8.36;49.03
47280;BME280;34064;44.942;0.008;2023-01-28T10:22:05;99799.44;;;8.41;48.95
47280;BME280;34064;44.942;0.008;2023-01-28T10:24:40;99805.81;;;8.37;49.04
47280;BME280;34064;44.942;0.008;2023-01-28T10:27:17;99794.94;;;8.43;48.53
47280;BME280;34064;44.942;0.008;2023-01-28T10:29:45;99793.03;;;8.46;48.57
47280;BME280;34064;44.942;0.008;2023-01-28T10:32:26;99784.66;;;8.55;48.56
47280;BME280;34064;44.942;0.008;2023-01-28T10:34:55;99781.06;;;8.56;48.52
47280;BME280;34064;44.942;0.008;2023-01-28T10:37:21;99780.81;;;8.61;48.22
47280;BME280;34064;44.942;0.008;2023-01-28T10:39:48;99771.63;;;8.68;48.25
47280;BME280;34064;44.942;0.008;2023-01-28T10:42:31;99775.91;;;8.70;48.26
47280;BME280;34064;44.942;0.008;2023-01-28T10:45:20;99768.94;;;8.85;48.29
47280;BME280;34064;44.942;0.008;2023-01-28T10:50:51;99742.38;;;9.19;48.02
47280;BME280;34064;44.942;0.008;2023-01-28T10:53:18;99733.53;;;9.34;47.69
47280;BME280;34064;44.942;0.008;2023-01-28T10:58:18;99724.66;;;9.35;47.28
47280;BME280;34064;44.942;0.008;2023-01-28T11:00:45;99735.41;;;9.32;47.57
47280;BME280;34064;44.942;0.008;2023-01-28T11:03:23;99741.34;;;9.38;47.32
47280;BME280;34064;44.942;0.008;2023-01-28T11:05:54;99732.06;;;9.45;46.92
47280;BME280;34064;44.942;0.008;2023-01-28T11:08:22;99741.13;;;9.41;46.85
47280;BME280;34064;44.942;0.008;2023-01-28T11:10:50;99737.13;;;9.33;47.23
47280;BME280;34064;44.942;0.008;2023-01-28T11:13:22;99743.47;;;9.31;47.11
47280;BME280;34064;44.942;0.008;2023-01-28T11:16:00;99741.25;;;9.23;46.84
47280;BME280;34064;44.942;0.008;2023-01-28T11:18:37;99749.66;;;9.15;47.38
47280;BME280;34064;44.942;0.008;2023-01-28T11:21:06;99742.47;;;9.01;47.60
47280;BME280;34064;44.942;0.008;2023-01-28T11:23:59;99754.25;;;8.96;48.03
47280;BME280;34064;44.942;0.008;2023-01-28T11:26:31;99762.25;;;8.94;47.65
47280;BME280;34064;44.942;0.008;2023-01-28T11:28:59;99759.19;;;8.86;48.03
47280;BME280;34064;44.942;0.008;2023-01-28T11:31:26;99754.91;;;8.83;48.72
47280;BME280;34064;44.942;0.008;2023-01-28T11:33:57;99757.47;;;8.85;48.54
47280;BME280;34064;44.942;0.008;2023-01-28T11:36:29;99752.16;;;8.85;48.63
47280;BME280;34064;44.942;0.008;2023-01-28T11:38:58;99752.16;;;8.85;48.55
47280;BME280;34064;44.942;0.008;2023-01-28T11:41:34;99750.28;;;8.87;48.30
47280;BME280;34064;44.942;0.008;2023-01-28T11:44:23;99753.19;;;8.82;49.06
47280;BME280;34064;44.942;0.008;2023-01-28T12:00:44;99732.09;;;8.97;49.26
47280;BME280;34064;44.942;0.008;2023-01-28T12:03:50;99742.97;;;8.92;49.32
47280;BME280;34064;44.942;0.008;2023-01-28T12:09:21;99733.34;;;8.89;49.92
47280;BME280;34064;44.942;0.008;2023-01-28T12:12:01;99733.19;;;8.93;50.44
47280;BME280;34064;44.942;0.008;2023-01-28T12:17:27;99734.22;;;8.90;51.00
47280;BME280;34064;44.942;0.008;2023-01-28T12:25:10;99736.44;;;8.82;51.66
47280;BME280;34064;44.942;0.008;2023-01-28T12:35:45;99731.16;;;8.82;52.78
47280;BME280;34064;44.942;0.008;2023-01-28T12:38:26;99729.44;;;8.81;52.90
47280;BME280;34064;44.942;0.008;2023-01-28T12:48:45;99727.38;;;8.86;53.23
47280;BME280;34064;44.942;0.008;2023-01-28T12:51:43;99735.75;;;8.78;53.25
47280;BME280;34064;44.942;0.008;2023-01-28T12:54:19;99734.31;;;8.72;53.14
47280;BME280;34064;44.942;0.008;2023-01-28T12:56:56;99732.91;;;8.65;53.18
47280;BME280;34064;44.942;0.008;2023-01-28T12:59:31;99728.63;;;8.63;53.00
47280;BME280;34064;44.942;0.008;2023-01-28T13:02:20;99735.19;;;8.55;53.33
47280;BME280;34064;44.942;0.008;2023-01-28T13:08:02;99725.44;;;8.56;53.45
47280;BME280;34064;44.942;0.008;2023-01-28T13:10:49;99723.72;;;8.55;53.65
47280;BME280;34064;44.942;0.008;2023-01-28T13:13:21;99727.16;;;8.57;53.51
47280;BME280;34064;44.942;0.008;2023-01-28T13:15:52;99727.00;;;8.60;54.16
47280;BME280;34064;44.942;0.008;2023-01-28T13:18:47;99715.91;;;8.69;53.74
47280;BME280;34064;44.942;0.008;2023-01-28T13:24:35;99712.19;;;8.73;53.61
47280;BME280;34064;44.942;0.008;2023-01-28T13:31:59;99714.56;;;8.78;53.75
47280;BME280;34064;44.942;0.008;2023-01-28T13:34:38;99716.63;;;8.89;53.72
47280;BME280;34064;44.942;0.008;2023-01-28T13:37:25;99715.94;;;8.85;53.38
47280;BME280;34064;44.942;0.008;2023-01-28T13:42:34;99713.69;;;8.78;53.68
47280;BME280;34064;44.942;0.008;2023-01-28T13:47:46;99709.97;;;8.82;53.54
47280;BME280;34064;44.942;0.008;2023-01-28T13:50:24;99703.47;;;8.87;53.29
47280;BME280;34064;44.942;0.008;2023-01-28T13:55:48;99713.03;;;8.90;53.08
47280;BME280;34064;44.942;0.008;2023-01-28T13:58:35;99713.03;;;8.90;52.91
47280;BME280;34064;44.942;0.008;2023-01-28T14:12:57;99711.84;;;8.96;53.32
47280;BME280;34064;44.942;0.008;2023-01-28T14:18:27;99717.16;;;8.96;53.09
47280;BME280;34064;44.942;0.008;2023-01-28T14:20:55;99716.28;;;8.95;53.35
47280;BME280;34064;44.942;0.008;2023-01-28T14:23:26;99719.69;;;8.97;52.95
47280;BME280;34064;44.942;0.008;2023-01-28T14:32:02;99715.50;;;9.09;53.33
47280;BME280;34064;44.942;0.008;2023-01-28T14:34:33;99716.53;;;9.07;53.23
47280;BME280;34064;44.942;0.008;2023-01-28T14:37:08;99720.13;;;9.05;53.28
47280;BME280;34064;44.942;0.008;2023-01-28T14:39:50;99721.84;;;9.07;53.11
47280;BME280;34064;44.942;0.008;2023-01-28T14:42:26;99728.22;;;9.02;52.91
47280;BME280;34064;44.942;0.008;2023-01-28T14:47:54;99729.78;;;8.90;53.13
47280;BME280;34064;44.942;0.008;2023-01-28T14:59:18;99744.47;;;8.80;54.32
47280;BME280;34064;44.942;0.008;2023-01-28T15:01:47;99740.72;;;8.84;54.33
47280;BME280;34064;44.942;0.008;2023-01-28T15:04:32;99735.41;;;8.84;54.44
47280;BME280;34064;44.942;0.008;2023-01-28T15:07:15;99749.44;;;8.86;54.10
47280;BME280;34064;44.942;0.008;2023-01-28T15:09:41;99746.13;;;8.83;54.20
47280;BME280;34064;44.942;0.008;2023-01-28T15:12:09;99746.88;;;8.85;53.79
47280;BME280;34064;44.942;0.008;2023-01-28T15:14:35;99752.50;;;8.79;53.97
47280;BME280;34064;44.942;0.008;2023-01-28T15:17:02;99757.66;;;8.82;54.12
47280;BME280;34064;44.942;0.008;2023-01-28T15:19:34;99758.25;;;8.87;53.77
47280;BME280;34064;44.942;0.008;2023-01-28T15:22:06;99752.94;;;8.87;53.72
47280;BME280;34064;44.942;0.008;2023-01-28T15:24:36;99756.72;;;8.83;53.40
47280;BME280;34064;44.942;0.008;2023-01-28T15:27:18;99768.06;;;8.85;53.45
47280;BME280;34064;44.942;0.008;2023-01-28T15:29:54;99762.94;;;8.82;53.41
47280;BME280;34064;44.942;0.008;2023-01-28T15:32:27;99766.69;;;8.78;53.21
47280;BME280;34064;44.942;0.008;2023-01-28T15:34:54;99777.44;;;8.74;53.20